Hattiesburg Laurel Regional Airport Hattiesburg,Laurel US
ICAO: KPIB
IATA: PIB
Category: Medium
Scheduled Services: Yes

Elevation: 298 ft
TransAlt. 18000 ft.

Airport Communications:
AWOS 3:128.325
HOUSTON CNTR:126.8
CTAF/UNICOM:123

KPIB Zoom In..

Runways:

(A) RW 18 length 6502 ft width 150 ft
ILS 109.50 / hdg 181

(B) RW 36 length 6502 ft width 150 ft
---- / hdg 1

Location; KPIB
Day. 15 / Time. 22.56 Zulu
* Altimeter: 30.04
* Temperature: 26° c. 78.8°f.
* Wind from: 200° Speed 03 kn.
Dewpoint: 24° c.
Visibility: 10 Statute Miles.
Clouds: Clear (automated report).

KPIB 152256Z AUTO 20003KT 10SM CLR 26/24 A3004 RMK AO2 SLP168 T02560239


Wind From 200°
Speed 03 kn.

 
 
jpsmedia.com for Web Design worldairports.se 2018   terms of use